LiveATC.Net - Listen to live air traffic control over the Internet!

NOTICE

Unauthorized use prohibited. See LiveATC.net Terms of Service



ICAO: KFDK  IATA: FDK   Airport: Frederick Municipal Airport
City: Frederick   State/Province: Maryland
Country: United States   Continent: North America
KFDK METAR Weather: KFDK 230445Z AUTO 30018G23KT 10SM -SN SCT048 SCT100 03/M05 A2990 RMK AO2 LTG DSNT E
KFDK Flight Activity (FlightAware)
KFDK Airport Info   (iFlightPlanner)

KFDK Del/Gnd/Twr/CTAF
Feed Status: UP   Listeners: 2
Listen in your browser - HTML5 player (in browser, HTML5)
Click here to listen with your own player (launches your MP3 player)
KFDK Del/Gnd/Twr/CTAF Audio Archives
FacilityFrequency
Clearance Delivery (Potomac Approach)126.900
Frederick Ground121.975
Frederick Tower/CTAF132.400

ICAO: RJTT  IATA: HND   Airport: Tokyo International Airport
City: Tokyo
Country: Japan   Continent: Asia
RJTT METAR Weather: RJTT 230430Z 07009KT 9999 -RASN FEW020 BKN045 06/02 Q1011 NOSIG RMK 1CU020 7SC045 A2986 MOD TURB OBS AT 0420Z 25NM SW ARLON BTN FL160 AND 11000FT BY B763
RJTT Flight Activity (FlightAware)
RJTT Webcam:  (Airport Webcams) 
RJTT Airport Info   (iFlightPlanner)

RJTT Del/Ground
Feed Status: UP   Listeners: 1
Listen in your browser - HTML5 player (in browser, HTML5)
Click here to listen with your own player (launches your MP3 player)
RJTT Del/Ground Audio Archives
FacilityFrequency
Tokyo Clearance Delivery121.825
Tokyo Ground121.700
Tokyo Ground118.225
Tokyo Ground121.625
Tokyo Ground121.975

ICAO: RJTT  IATA: HND   Airport: Tokyo International Airport
City: Tokyo
Country: Japan   Continent: Asia
RJTT METAR Weather: RJTT 230430Z 07009KT 9999 -RASN FEW020 BKN045 06/02 Q1011 NOSIG RMK 1CU020 7SC045 A2986 MOD TURB OBS AT 0420Z 25NM SW ARLON BTN FL160 AND 11000FT BY B763
RJTT Flight Activity (FlightAware)
RJTT Webcam:  (Airport Webcams) 
RJTT Airport Info   (iFlightPlanner)

RJTT Del/Twr/TCA/Gnd
Feed Status: UP   Listeners: 5
Listen in your browser - HTML5 player (in browser, HTML5)
Click here to listen with your own player (launches your MP3 player)
RJTT Del/Twr/TCA/Gnd Audio Archives
FacilityFrequency
Tokyo Clearance Delivery121.825
Tokyo Ground121.975
Tokyo Ground121.625
Tokyo Ground121.700
Tokyo Ground118.225
Tokyo TCA124.750
Tokyo Tower118.100
Tokyo Tower118.575
Tokyo Tower118.725
Tokyo Tower124.350

NOTICE

Unauthorized use prohibited. See LiveATC.net Terms of Service


Find LiveATC Audio Streams


Airport/ARTCC Code

Frequency Search
(e.g., 124.400, 128.75)
Site-wide search
 


Browse LiveATC Feeds
Top 50 LiveATC Feeds
LiveATC Feed Map
Bad Weather Areas

LiveATC FAQ
Offer LiveATC feed
Contact LiveATC.net
Press Inquiries

LiveATC on iPhone
LiveATC on Android

Windows Phone
Windows 8/10

LiveATC Mobile
(Mobile browser)

ATC Audio Archives
Interesting Recordings

LiveATC Forums


Home Page
About LiveATC.net
Make a Donation
Terms of Use
Privacy Policy

Canadian Air Freqs

AIRMETs/SIGMETs

FAA Airport Status
Nat'l Airspace Status
Arrival Demand Charts


Server Software By:
Icecast.org
Liquidsoap